Sierra Vista, AZ (85635)

2:00 PM MST on March 29, 2015 (GMT -0700)
Foothills | | Change Station
CLOSE
Current Station
Personal Weather Station
Location: Sierra Vista, AZ
Elevation: 4508 ft
Nearby Weather Stations

Elev 4508 ft 31.54 °N, 110.26 °W | Updated 1 minute ago

Partly Cloudy
Partly Cloudy
83.2 °F
Feels Like 81 °F
N
6.0
Wind Variable Wind from SW
Gusts 18.0 mph

Today
High -- | Low -- °F
--% Chance of Precip.
Yesterday
High -- | Low -- °F
Precip. -- in
6:13 AM 6:38 PM
Waxing Gibbous, 74% visible
Pressure 30.18 in
Visibility 8.0 miles
Clouds Few 31000 ft
Heat Index 81 °F
Dew Point 16 °F
Humidity 8%
Rainfall 0.00 in
Snow Depth Not available.
UV 9 out of 12
Pollen 10.40 out of 12
Air Quality Not available.
Flu Activity Not available.
SPECI KFHU 292051Z AUTO 23013G21KT 8SM FEW310 27/M09 A3018 RMK AO2 WSHFT 46

More Conditions Fewer Conditions

Pressure 30.18 in
Visibility 8.0 miles
Clouds Few 31000 ft
Heat Index 81 °F
Dew Point 16 °F
Humidity 8%
Rainfall 0.00 in
Snow Depth Not available.
UV 9 out of 12
Pollen 10.40 out of 12
Air Quality Not available.
Flu Activity Not available.
SPECI KFHU 292051Z AUTO 23013G21KT 8SM FEW310 27/M09 A3018 RMK AO2 WSHFT 46

More Conditions Fewer Conditions

10-Day Weather Forecast

Almanac

Astronomy

Mar. 29, 2015 Rise Set
Actual Time
Civil Twilight
Nautical Twilight
Astronomical Twilight
Moon
Length of Visible Light
Length of Day
Tomorrow will be .
, % of the Moon is Illuminated

Today's Extremes

State Highs State Lows

Community

WunderPhotos

Upload Photos

1,809,349 photos uploaded!

WunderBlogs® & News

Nearby

Air Quality

  Air Quality AQ Index Pollutant
Not available.

Snow Depth

Station Depth Elevation

Earthquake Activity

City Distance Mag. Time & Date
Minimum magnitude displayed is 2.5.

Coastal Water Temperatures

Place Temperature

Stations

Nearby Weather Stations

Station Location Temp. Windchill Dew Point Humidity Wind Precip. Elev Updated Type